Date,TemperatureHighF,TemperatureAvgF,TemperatureLowF,DewpointHighF,DewpointAvgF,DewpointLowF,HumidityHigh,HumidityAvg,HumidityLow,PressureMaxIn,PressureMinIn,WindSpeedMaxMPH,WindSpeedAvgMPH,GustSpeedMaxMPH,PrecipitationSumIn
2013-1-1,28.5,23.3,17.2,23.0,17.4,11.0,82,78,73,28.35,28.27,0,0,0,0.00
2013-1-2,20.2,17.3,13.8,12.0,10.3,7.0,77,74,69,28.50,28.34,0,0,0,0.00
2013-1-3,24.8,16.9,5.1,18.0,10.3,0.0,80,75,67,28.48,28.36,0,0,0,0.00
2013-1-4,28.9,24.5,22.5,18.0,16.3,14.0,79,71,63,28.49,28.34,8,1,12,0.00
2013-1-5,28.2,24.4,22.2,20.0,17.5,15.0,77,75,70,28.65,28.42,4,0,11,0.00
2013-1-6,33.0,30.4,27.1,26.0,24.3,20.0,82,78,73,28.47,28.26,3,0,9,0.00
2013-1-7,30.3,26.9,20.0,25.0,20.7,15.0,82,78,72,28.73,28.48,3,0,7,0.00
2013-1-8,43.8,26.8,16.6,27.0,18.7,12.0,82,73,52,28.64,28.55,4,0,5,0.13
2013-1-9,45.0,34.5,25.9,35.0,26.5,20.0,80,73,64,28.75,28.45,11,2,13,0.45
2013-1-10,39.7,30.2,20.4,28.0,22.7,16.0,82,74,58,28.90,28.64,4,0,7,0.02
2013-1-11,42.6,39.7,37.9,38.0,31.7,24.0,85,74,55,28.64,28.27,7,2,11,0.36
2013-1-12,52.2,47.3,41.9,48.0,43.0,38.0,85,85,84,28.40,28.31,5,0,7,0.01
2013-1-13,64.1,56.2,50.1,55.0,50.1,46.0,85,80,71,28.31,28.18,6,1,13,0.05
2013-1-14,54.0,30.4,24.8,49.0,23.6,18.0,84,76,70,28.69,28.20,7,2,13,0.09
2013-1-15,29.8,25.9,23.0,19.0,17.4,16.0,77,70,63,28.69,28.42,5,1,6,0.00
2013-1-16,32.8,29.1,26.6,26.0,22.5,18.0,81,76,70,28.41,28.17,7,1,13,0.00
2013-1-17,31.4,28.6,21.2,24.0,21.4,16.0,80,74,66,28.45,28.27,11,2,13,0.00
2013-1-18,27.6,20.2,12.8,16.0,10.8,5.0,79,67,61,28.74,28.45,9,2,15,0.00
2013-1-19,48.1,38.1,28.3,30.0,22.9,16.0,62,55,44,28.46,28.07,9,3,16,0.00
2013-1-20,43.2,26.5,17.5,30.0,15.5,8.0,75,64,50,28.42,28.00,11,3,25,0.00
2013-1-21,18.9,15.1,8.6,11.0,7.2,1.0,77,71,61,28.38,28.19,7,1,11,0.00
2013-1-22,8.6,3.9,1.0,3.0,-3.9,-8.0,76,70,64,28.48,28.27,10,2,15,0.00
2013-1-23,11.4,4.8,-1.0,2.0,-2.7,-7.0,77,71,62,28.51,28.35,6,1,9,0.00
2013-1-24,16.4,5.5,-2.8,5.0,-2.5,-9.0,78,70,54,28.79,28.33,9,1,13,0.00
2013-1-25,13.9,7.7,-0.1,7.0,1.3,-6.0,78,75,70,28.77,28.31,3,0,8,0.00
2013-1-26,23.1,16.8,10.9,15.0,10.6,5.0,79,76,71,28.70,28.35,4,1,7,0.00
2013-1-27,29.5,21.9,14.3,17.0,13.1,9.0,80,69,57,28.81,28.63,3,0,5,0.00
2013-1-28,42.7,34.4,24.0,39.0,29.8,18.0,85,83,74,28.62,28.27,8,2,11,0.17
2013-1-29,51.4,45.3,35.8,47.0,41.2,31.0,86,85,84,28.37,28.13,2,0,7,0.13
2013-1-30,58.6,53.6,48.6,51.0,47.8,43.0,86,81,72,28.12,27.54,10,2,18,0.58
2013-1-31,47.7,23.5,15.6,42.0,16.2,8.0,82,73,64,28.11,27.55,19,4,27,0.69
2013-2-1,16.2,12.4,7.0,9.0,5.3,-1.0,79,73,65,28.55,28.09,10,2,14,0.00
2013-2-2,17.0,12.3,7.0,11.0,5.9,0.0,80,75,69,28.54,28.24,5,1,9,0.00
2013-2-3,21.1,16.5,13.0,15.0,10.2,7.0,81,76,65,28.25,28.11,3,0,9,0.00
2013-2-4,21.7,16.6,11.6,14.0,10.2,5.0,81,76,65,28.31,28.18,2,0,8,0.00
2013-2-5,26.9,20.9,16.3,19.0,15.0,11.0,81,78,71,28.23,28.13,0,0,0,0.00
2013-2-6,27.5,20.5,7.8,19.0,12.9,2.0,82,73,55,28.62,28.22,3,0,7,0.07
2013-2-7,43.9,24.5,6.5,28.0,15.3,1.0,79,69,52,28.62,28.31,6,1,11,0.18
2013-2-8,33.0,26.3,15.4,28.0,20.4,10.0,83,78,73,28.42,28.09,12,3,13,0.03
2013-2-9,27.3,16.8,6.7,15.0,9.3,1.0,79,73,58,28.67,28.43,8,2,13,0.04
2013-2-10,47.0,24.3,3.1,21.0,10.6,-2.0,79,59,29,28.65,28.29,11,1,11,0.19
2013-2-11,48.6,37.2,30.6,40.0,29.4,20.0,85,74,52,28.27,27.98,11,3,19,0.11
2013-2-12,30.3,27.1,18.6,22.0,19.9,14.0,81,74,71,28.35,28.19,8,2,13,0.11
2013-2-13,38.0,27.6,17.2,26.0,20.2,12.0,82,74,62,28.24,28.02,5,1,8,0.00
2013-2-14,34.9,28.2,19.9,29.0,23.1,15.0,84,81,78,28.24,28.15,3,1,10,0.05
2013-2-15,34.4,29.2,21.4,29.0,21.2,14.0,79,72,67,28.36,28.18,6,2,17,0.01
2013-2-16,25.5,17.7,6.2,16.0,9.0,0.0,78,69,56,28.36,28.22,4,1,9,0.01
2013-2-17,17.7,11.9,6.2,10.0,4.9,0.0,80,73,64,28.50,28.22,11,2,14,0.00
2013-2-18,35.8,20.4,0.6,25.0,9.7,-5.0,79,65,48,28.56,28.20,6,1,9,0.00
2013-2-19,38.2,30.1,16.2,33.0,23.5,8.0,83,76,64,28.20,27.96,15,2,21,0.20
2013-2-20,17.7,14.9,12.8,10.0,7.9,6.0,78,74,67,28.44,28.20,9,2,19,0.20
2013-2-21,21.7,14.9,8.0,12.0,8.1,3.0,80,75,66,28.64,28.42,9,1,13,0.00
2013-2-22,28.7,23.2,8.1,24.0,17.2,3.0,83,78,68,28.60,28.32,11,3,14,0.00
2013-2-23,35.3,29.9,25.3,30.0,24.8,19.0,83,81,77,28.33,28.19,3,1,6,0.06
2013-2-24,27.3,25.4,23.6,20.0,18.2,16.0,79,74,69,28.43,28.19,5,1,9,0.06
2013-2-25,38.1,27.5,17.7,24.0,19.0,13.0,82,71,56,28.53,28.42,4,1,6,0.00
2013-2-26,35.9,30.8,23.4,28.0,23.4,17.0,83,74,65,28.44,27.96,8,4,14,0.52
2013-2-27,36.9,33.4,30.8,32.0,28.7,26.0,84,82,80,27.98,27.91,7,2,10,0.39
2013-2-28,33.5,30.3,28.6,28.0,25.2,24.0,83,81,79,28.11,27.91,7,1,7,0.04
2013-3-1,28.2,24.4,21.2,23.0,19.1,16.0,82,80,77,28.28,28.11,10,2,10,0.04
2013-3-2,22.0,20.5,19.6,16.0,14.9,14.0,81,79,75,28.26,28.21,7,2,8,0.00
2013-3-3,23.8,20.1,17.6,16.0,13.9,12.0,80,77,72,28.27,28.20,11,2,16,0.00
2013-3-4,28.4,19.6,10.6,18.0,12.6,6.0,80,74,63,28.39,28.27,6,1,12,0.00
2013-3-5,38.5,26.2,12.9,26.0,17.8,8.0,80,71,59,28.40,28.10,6,2,9,0.04
2013-3-6,38.0,32.6,28.1,26.0,23.5,20.0,75,69,61,28.43,28.10,6,2,8,0.03
2013-3-7,34.2,31.0,28.4,27.0,25.0,23.0,82,78,75,28.58,28.42,9,2,10,0.03
2013-3-8,37.9,30.4,23.0,25.0,22.2,17.0,81,72,59,28.71,28.58,9,3,16,0.00
2013-3-9,53.3,34.5,19.6,29.0,21.7,15.0,83,63,31,28.71,28.50,3,0,5,0.00
2013-3-10,65.6,50.0,39.5,35.0,25.6,19.0,51,39,30,28.51,28.34,6,1,12,0.00
2013-3-11,58.6,50.2,43.9,41.0,29.8,25.0,83,47,34,28.35,28.03,6,2,13,0.41
2013-3-12,43.9,35.2,30.3,39.0,29.1,23.0,83,78,72,28.28,28.09,5,1,11,0.02
2013-3-13,31.0,26.8,21.8,22.0,19.8,15.0,81,75,65,28.36,28.21,8,2,17,0.02
2013-3-14,27.7,23.3,19.6,17.0,13.9,12.0,78,68,60,28.46,28.36,10,3,16,0.00
2013-3-15,35.3,28.5,19.0,28.0,21.9,13.0,83,76,70,28.40,28.16,7,1,12,0.00
2013-3-16,30.8,27.8,22.0,26.0,22.7,16.0,83,81,78,28.30,28.02,4,1,6,0.01
2013-3-17,31.5,23.8,16.3,20.0,15.9,10.0,81,73,58,28.54,28.31,4,1,6,0.07
2013-3-18,31.3,25.9,19.0,27.0,19.5,12.0,83,77,69,28.52,28.03,12,4,17,0.07
2013-3-19,32.3,28.2,22.3,28.0,21.9,16.0,84,77,66,28.21,28.02,10,2,15,0.00
2013-3-20,31.3,23.5,15.7,20.0,15.2,9.0,80,71,55,28.23,28.16,7,2,13,0.04
2013-3-21,24.8,19.2,14.5,17.0,11.9,8.0,80,73,62,28.18,28.11,8,1,12,0.04
2013-3-22,26.4,23.5,20.6,18.0,16.9,15.0,81,76,70,28.32,28.15,8,1,9,0.00
2013-3-23,33.9,26.3,18.5,22.0,18.5,13.0,78,72,61,28.37,28.29,5,1,9,0.00
2013-3-24,37.0,27.4,15.0,22.0,17.6,10.0,81,68,54,28.35,27.92,5,1,9,0.03
2013-3-25,33.8,31.1,28.2,28.0,24.8,21.0,83,78,60,28.08,27.86,6,1,9,0.08
2013-3-26,41.6,32.4,25.6,30.0,25.2,20.0,82,75,61,28.36,28.09,9,2,11,0.10
2013-3-27,36.7,31.9,29.3,27.0,24.8,23.0,82,75,63,28.44,28.34,7,2,12,0.10
2013-3-28,33.2,31.2,28.5,28.0,25.9,23.0,82,81,78,28.56,28.40,6,1,7,0.11
2013-3-29,45.5,35.6,28.1,32.0,26.3,21.0,82,70,52,28.56,28.49,6,1,11,0.01
2013-3-30,52.1,36.5,21.2,28.0,21.5,16.0,81,58,32,28.56,28.37,5,1,8,0.01
2013-3-31,48.6,40.6,35.7,38.0,29.9,20.0,84,67,50,28.36,28.03,5,1,10,0.18
2013-4-1,42.2,33.3,25.8,37.0,22.4,13.0,84,65,46,28.32,27.99,10,3,17,0.23
2013-4-2,33.8,26.3,20.9,20.0,15.2,11.0,78,64,48,28.47,28.32,9,2,17,0.00
2013-4-3,31.8,26.1,18.6,18.0,15.2,11.0,73,64,53,28.72,28.47,14,2,16,0.00
2013-4-4,53.7,31.8,13.3,16.0,10.4,5.0,79,48,16,28.68,28.30,5,1,10,0.00
2013-4-5,44.3,33.5,25.1,30.0,20.4,9.0,70,59,36,28.49,28.25,9,2,17,0.00
2013-4-6,53.2,36.4,18.0,22.0,14.4,11.0,82,48,20,28.60,28.36,6,1,10,0.00
2013-4-7,67.6,55.0,41.7,46.0,33.9,14.0,73,46,28,28.36,28.19,11,3,17,0.00
2013-4-8,67.8,50.2,29.3,51.0,39.7,25.0,84,69,52,28.42,28.23,5,1,13,0.02
2013-4-9,72.4,58.8,42.2,55.0,48.0,37.0,82,68,55,28.47,28.24,5,1,15,0.04
2013-4-10,66.5,56.8,46.3,59.0,50.5,42.0,85,79,67,28.30,28.18,5,1,12,1.20
2013-4-11,47.3,44.2,42.0,43.0,39.8,37.0,85,84,82,28.27,28.05,6,2,11,0.01
2013-4-12,56.1,46.6,37.2,52.0,41.0,30.0,86,81,73,28.18,27.87,8,3,15,1.01
2013-4-13,42.0,38.0,32.0,33.0,30.2,26.0,79,74,65,28.33,28.17,8,2,14,0.03
2013-4-14,46.4,37.4,27.8,35.0,29.0,23.0,81,72,63,28.48,28.34,4,0,9,0.03
2013-4-15,69.1,55.2,38.4,52.0,42.9,31.0,74,64,48,28.46,28.36,6,2,14,0.00
2013-4-16,67.4,55.4,47.6,58.0,48.1,41.0,82,77,69,28.55,28.39,7,2,12,0.05
2013-4-17,68.1,53.9,41.6,44.0,36.7,31.0,78,56,26,28.63,28.45,6,1,7,0.05
2013-4-18,79.2,67.3,56.5,64.0,55.6,42.0,77,67,56,28.48,28.13,7,3,14,0.00
2013-4-19,67.5,54.7,38.2,56.0,45.6,28.0,82,71,66,28.17,27.83,9,2,15,0.42
2013-4-20,38.6,34.0,24.6,28.0,24.3,18.0,77,68,59,28.71,28.17,14,3,16,0.02
2013-4-21,50.6,34.1,19.1,26.0,20.4,14.0,82,61,29,28.92,28.72,4,1,7,0.02
2013-4-22,61.5,47.5,35.7,34.0,25.8,20.0,61,44,29,28.81,28.63,5,2,9,0.00
2013-4-23,68.3,52.0,35.5,40.0,31.6,23.0,69,49,28,28.64,28.31,5,2,9,0.00
2013-4-24,55.9,46.5,32.8,50.0,39.2,28.0,84,76,48,28.46,28.05,10,2,17,0.68
2013-4-25,51.9,39.3,29.6,36.0,30.2,25.0,83,71,45,28.66,28.46,7,2,13,0.04
2013-4-26,58.2,40.9,25.6,36.0,27.4,21.0,84,63,29,28.79,28.66,5,1,7,0.04
2013-4-27,71.7,51.3,28.5,37.0,29.0,22.0,79,48,21,28.74,28.54,5,0,8,0.00
2013-4-28,60.4,52.4,47.1,46.0,41.7,31.0,83,69,39,28.54,28.33,8,2,12,0.42
2013-4-29,56.9,51.3,46.8,51.0,46.0,42.0,84,82,77,28.39,28.31,4,1,6,0.28
2013-4-30,71.4,58.8,51.8,57.0,50.2,47.0,84,74,59,28.56,28.39,6,2,9,0.28
2013-5-1,76.8,62.7,51.1,57.0,45.6,32.0,79,57,32,28.68,28.56,6,2,8,0.00
2013-5-2,76.4,63.1,49.3,41.0,30.6,24.0,57,32,16,28.73,28.59,8,2,10,0.00
2013-5-3,74.8,62.4,50.8,43.0,37.9,27.0,62,42,28,28.64,28.53,8,2,12,0.00
2013-5-4,70.9,59.1,46.1,41.0,37.8,33.0,72,48,28,28.59,28.47,8,2,11,0.00
2013-5-5,74.4,59.1,39.1,45.0,31.6,17.0,82,43,14,28.53,28.41,6,2,11,0.00
2013-5-6,74.1,59.0,45.4,49.0,39.0,21.0,76,50,27,28.48,28.37,5,2,9,0.00
2013-5-7,73.1,53.8,49.8,99.9,32.8,-99.9,81,58,41,28.44,28.34,6,-113,7,0.00
2013-5-8,67.3,42.6,54.5,56.0,7.8,-99.9,84,53,62,28.38,28.30,3,-290,5,0.10
2013-5-9,72.0,53.0,49.7,57.0,33.4,-99.9,85,64,47,28.36,28.27,6,-114,10,0.02
2013-5-10,71.6,53.2,47.7,60.0,34.7,-99.9,84,67,65,28.36,28.15,5,-114,17,0.40
2013-5-11,57.8,38.5,43.1,53.0,13.0,-99.9,84,63,75,28.19,28.10,6,-207,8,0.40
2013-5-12,47.6,35.6,33.1,42.0,16.6,-99.9,82,64,57,28.37,28.14,7,-112,16,0.06
2013-5-13,44.0,32.4,28.0,29.0,12.4,-99.9,79,59,54,28.50,28.36,4,-105,10,0.06
2013-5-14,48.7,35.3,24.9,38.0,18.7,-99.9,82,67,51,28.51,28.28,3,-93,8,0.20
2013-5-15,80.1,49.6,43.0,63.0,18.8,-99.9,81,52,42,28.27,28.09,10,-213,15,0.03
2013-5-16,75.3,55.7,47.0,53.0,27.5,-99.9,84,48,27,28.37,28.15,8,-114,15,0.03
2013-5-17,74.1,53.0,41.0,47.0,25.3,-99.9,83,48,29,28.52,28.37,5,-114,7,0.00
2013-5-18,79.8,58.2,53.5,56.0,31.5,-99.9,76,49,32,28.54,28.44,5,-115,7,0.00
2013-5-19,77.9,59.4,58.0,64.0,39.7,-99.9,80,64,62,28.50,28.37,5,-114,8,0.00
2013-5-20,85.1,63.6,57.7,70.0,43.5,-99.9,84,64,57,28.43,28.28,3,-114,8,0.00
2013-5-21,85.9,66.0,63.4,72.0,45.2,-99.9,85,62,51,28.33,28.20,9,-114,11,0.00
2013-5-22,84.2,65.3,63.8,68.0,45.5,-99.9,84,63,54,28.25,28.11,8,-104,16,0.01
2013-5-23,72.0,54.5,45.1,63.0,36.7,-99.9,83,70,65,28.26,28.14,6,-120,12,0.34
2013-5-24,44.3,34.3,34.1,39.0,16.2,-99.9,83,68,70,28.59,28.27,7,-123,10,0.36
2013-5-25,55.4,40.2,31.9,40.0,20.1,-99.9,83,60,51,28.62,28.56,7,-103,13,0.00
2013-5-26,60.8,43.9,31.6,41.0,22.8,-99.9,83,56,37,28.61,28.55,9,-82,13,0.00
2013-5-27,68.2,48.0,32.3,44.0,22.2,-99.9,83,50,30,28.63,28.49,3,-105,8,0.00
2013-5-28,75.0,51.0,49.3,66.0,28.0,-99.9,84,65,72,28.50,28.31,5,-176,10,0.28
2013-5-29,82.5,72.6,62.8,69.0,63.2,58.0,84,73,62,28.45,28.39,7,2,14,0.03
2013-5-30,84.7,66.1,60.1,69.0,48.6,-99.9,84,66,55,28.55,28.46,4,-84,8,0.03
2013-5-31,86.6,66.7,58.8,70.0,47.6,-99.9,85,64,56,28.49,28.36,4,-93,10,0.00
2013-6-1,83.6,65.8,63.0,70.0,47.1,-99.9,83,65,64,28.40,28.18,8,-93,13,0.00
2013-6-2,74.8,61.4,59.5,64.0,44.6,-99.9,84,68,63,28.27,28.14,8,-94,16,0.16
2013-6-3,62.6,48.3,41.6,53.0,29.3,-99.9,82,64,50,28.43,28.27,4,-104,7,0.16
2013-6-4,69.8,49.2,36.7,50.0,30.2,-99.9,84,61,42,28.53,28.43,3,-84,7,0.00
2013-6-5,80.0,57.0,39.9,57.0,35.3,-99.9,82,57,35,28.53,28.33,4,-83,8,0.00
2013-6-6,65.1,54.3,59.6,56.0,38.3,-99.9,84,72,70,28.34,28.16,3,-108,6,1.27
2013-6-7,60.7,42.8,53.2,55.0,14.0,-99.9,84,62,81,28.22,28.16,2,-249,6,1.27
2013-6-8,65.9,51.1,50.1,55.0,33.5,-99.9,85,69,68,28.48,28.23,3,-117,8,0.00
2013-6-9,75.4,57.9,46.2,61.0,40.5,-99.9,87,65,56,28.55,28.44,2,-84,4,0.00
2013-6-10,71.4,59.4,61.1,65.0,43.8,-99.9,84,73,72,28.43,28.15,4,-103,7,0.25
2013-6-11,66.5,55.6,57.2,60.0,38.9,-99.9,85,72,78,28.27,28.13,5,-116,10,0.02
2013-6-12,76.5,61.1,55.2,67.0,46.4,-99.9,85,72,68,28.30,28.17,3,-84,5,0.01
2013-6-13,65.4,59.2,54.3,61.0,54.1,49.0,84,83,79,28.18,27.88,6,2,14,0.17
2013-6-14,71.1,56.6,53.3,61.0,41.2,-99.9,84,70,65,28.42,28.18,6,-82,9,0.17
2013-6-15,74.1,57.1,47.8,56.0,37.9,-99.9,84,62,42,28.48,28.37,3,-83,7,0.00
2013-6-16,75.2,60.0,59.4,65.0,43.9,-99.9,83,70,68,28.38,28.21,8,-93,17,0.00
2013-6-17,79.1,64.5,61.1,65.0,49.8,-99.9,85,69,54,28.33,28.28,5,-62,11,0.07
2013-6-18,73.9,58.6,53.4,62.0,41.2,-99.9,84,67,66,28.38,28.27,5,-95,10,0.02
2013-6-19,74.0,54.2,43.4,58.0,34.0,-99.9,84,60,45,28.54,28.38,4,-94,6,0.02
2013-6-20,79.6,57.7,44.2,58.0,35.7,-99.9,84,58,36,28.60,28.54,4,-93,6,0.00
2013-6-21,81.4,58.9,48.9,64.0,37.9,-99.9,84,62,45,28.64,28.55,2,-112,6,0.00
2013-6-22,86.3,65.9,55.5,71.0,47.6,-99.9,85,65,57,28.57,28.45,4,-94,10,0.00
2013-6-23,87.1,70.9,65.2,72.0,53.6,-99.9,84,65,54,28.52,28.42,6,-75,12,0.00
2013-6-24,85.4,69.1,64.5,69.0,50.0,-99.9,83,63,54,28.50,28.37,6,-87,10,0.00
2013-6-25,85.0,63.3,63.8,73.0,44.9,-99.9,84,69,65,28.41,28.27,5,-119,14,0.58
2013-6-26,81.9,71.2,65.0,70.0,61.9,-99.9,84,75,66,28.29,0.00,3,-15,8,0.01
2013-6-27,67.4,54.1,61.9,63.0,33.5,-99.9,85,70,83,28.21,28.05,3,-166,6,1.59
2013-6-28,73.7,60.9,59.5,65.0,48.0,-99.9,85,75,69,28.05,27.90,4,-73,7,0.13
2013-6-29,73.3,57.0,59.6,65.0,40.5,-99.9,85,72,73,28.10,27.91,3,-114,8,0.56
2013-6-30,76.7,58.6,59.1,66.0,41.8,-99.9,85,72,69,28.27,28.09,3,-116,7,0.44
2013-7-1,72.5,60.2,60.5,64.0,47.9,-99.9,85,77,74,28.38,28.25,3,-72,4,0.83
2013-7-2,82.2,64.8,61.7,71.0,49.4,-99.9,84,71,66,28.46,28.34,3,-86,7,0.83
2013-7-3,86.1,68.8,65.4,73.0,53.7,-99.9,85,71,61,28.55,28.45,3,-76,8,0.00
2013-7-4,81.3,64.8,67.5,71.0,46.8,-99.9,84,69,65,28.58,28.52,4,-114,9,0.02
2013-7-5,81.0,67.5,66.4,70.0,54.3,-99.9,85,73,68,28.54,28.47,5,-65,11,0.33
2013-7-6,84.0,62.8,65.4,72.0,44.2,-99.9,85,70,67,28.55,28.43,3,-129,7,0.15
2013-7-7,76.5,62.9,66.0,67.0,45.3,-99.9,85,70,70,28.48,28.38,3,-114,8,0.16
2013-7-8,81.6,63.4,62.5,70.0,47.1,-99.9,84,71,66,28.49,28.42,3,-98,6,0.01
2013-7-9,82.4,63.8,66.0,73.0,46.8,-99.9,84,72,72,28.45,28.33,2,-115,6,0.09
2013-7-10,82.1,59.8,63.4,74.0,40.3,-99.9,84,70,76,28.35,28.20,4,-145,11,0.62
2013-7-11,73.0,47.1,55.7,61.0,12.3,-99.9,84,52,60,28.41,28.29,4,-282,8,0.62
2013-7-12,76.2,56.0,54.0,64.0,35.7,-99.9,84,66,64,28.53,28.40,5,-121,8,0.00
2013-7-13,76.8,61.8,55.4,67.0,45.7,-99.9,84,70,69,28.63,28.51,4,-93,6,0.00
2013-7-14,88.7,67.4,61.0,75.0,49.3,-99.9,85,67,61,28.68,28.62,4,-104,6,0.00
2013-7-15,89.7,67.6,63.6,76.0,48.4,-99.9,85,67,65,28.72,28.63,5,-122,7,0.00
2013-7-16,89.4,69.4,66.1,78.0,50.5,-99.9,85,67,63,28.70,28.62,3,-114,7,0.00
2013-7-17,87.9,69.2,65.3,77.0,55.2,-99.9,85,75,68,28.67,28.54,5,-84,6,0.92
2013-7-18,88.6,71.7,68.0,77.0,56.5,-99.9,85,71,66,28.57,28.41,5,-83,8,0.93
2013-7-19,87.1,71.9,69.3,76.0,55.7,-99.9,85,69,65,28.42,28.23,7,-83,11,0.00
2013-7-20,77.2,68.8,65.3,69.0,58.4,-99.9,84,76,72,28.31,28.19,4,-38,12,0.03
2013-7-21,83.0,64.4,62.3,71.0,46.3,-99.9,85,67,60,28.37,28.31,3,-104,5,0.01
2013-7-22,80.3,63.2,60.1,71.0,48.9,-99.9,84,73,70,28.36,28.17,4,-84,4,0.22
2013-7-23,80.1,53.5,61.9,69.0,25.5,-99.9,88,61,66,28.17,28.08,10,-227,14,0.23
2013-7-24,68.1,52.6,49.1,58.0,34.0,-99.9,84,67,63,28.40,28.15,5,-114,6,0.00
2013-7-25,73.4,52.4,43.9,58.0,31.8,-99.9,84,63,53,28.48,28.40,4,-119,6,0.00
2013-7-26,78.8,56.8,47.8,63.0,34.5,-99.9,84,61,49,28.48,28.38,3,-127,8,0.00
2013-7-27,71.6,57.0,54.8,64.0,39.9,-99.9,83,71,74,28.39,28.23,4,-115,5,0.01
2013-7-28,69.3,53.1,52.6,59.0,30.7,-99.9,84,63,61,28.39,28.22,5,-150,11,0.06
2013-7-29,70.9,53.1,51.4,59.0,33.4,-99.9,83,65,58,28.56,28.39,5,-118,11,0.00
2013-7-30,75.7,54.6,48.0,61.0,34.0,-99.9,84,64,56,28.61,28.53,4,-130,6,0.00
2013-7-31,76.3,58.6,51.1,65.0,40.8,-99.9,84,67,62,28.55,28.33,2,-104,5,0.00
2013-8-1,75.8,54.2,57.8,66.0,29.1,-99.9,84,63,66,28.32,28.23,4,-190,10,0.00
2013-8-2,72.6,58.3,52.8,61.0,40.7,-99.9,84,67,61,28.34,28.28,7,-97,14,0.04
2013-8-3,74.5,57.7,54.3,62.0,35.3,-99.9,84,61,52,28.38,28.28,5,-136,9,0.04
2013-8-4,70.2,53.1,53.3,58.0,33.3,-99.9,84,66,61,28.47,28.37,6,-127,8,0.07
2013-8-5,70.0,51.0,45.8,55.0,29.9,-99.9,84,63,53,28.50,28.41,3,-131,5,0.00
2013-8-6,79.2,57.8,49.3,62.0,36.7,-99.9,83,62,49,28.43,28.37,4,-115,7,0.00
2013-8-7,79.6,59.8,60.0,68.0,41.1,-99.9,84,69,68,28.38,28.30,6,-125,7,0.08
2013-8-8,76.6,62.0,62.8,69.0,45.4,-99.9,85,73,78,28.38,28.32,1,-118,4,0.06
2013-8-9,76.5,57.7,54.7,66.0,37.5,-99.9,85,68,64,28.39,28.28,7,-147,8,0.16
2013-8-10,75.9,56.2,53.1,62.0,35.4,-99.9,84,63,55,28.50,28.39,5,-126,8,0.01
2013-8-11,76.4,57.8,54.7,62.0,37.4,-99.9,84,63,55,28.52,28.43,4,-114,6,0.00
2013-8-12,73.5,54.1,54.9,62.0,34.1,-99.9,84,69,66,28.45,28.26,4,-147,6,0.07
2013-8-13,68.1,60.3,48.0,62.0,51.8,-99.9,85,76,68,28.33,28.19,5,-13,11,0.01
2013-8-14,65.9,48.5,47.1,53.0,28.6,-99.9,83,65,59,28.50,28.32,7,-128,10,0.00
2013-8-15,70.8,49.9,42.0,56.0,28.3,-99.9,84,63,58,28.55,28.48,4,-141,7,0.01
2013-8-16,76.5,51.8,44.2,57.0,27.8,-99.9,84,59,44,28.57,28.51,2,-147,5,0.00
2013-8-17,76.8,54.4,48.7,62.0,31.4,-99.9,84,61,55,28.65,28.57,3,-147,5,0.00
2013-8-18,74.9,56.6,54.2,63.0,37.4,-99.9,84,67,66,28.61,28.52,4,-125,7,0.00
2013-8-19,77.9,54.5,55.7,67.0,31.7,-99.9,84,65,67,28.53,28.44,2,-172,5,0.10
2013-8-20,80.3,58.0,50.6,67.0,37.9,-99.9,85,65,59,28.56,28.48,3,-126,7,0.01
2013-8-21,82.6,58.4,54.1,67.0,34.7,-99.9,85,62,56,28.59,28.45,2,-149,5,0.00
2013-8-22,80.0,60.9,61.2,70.0,41.0,-99.9,84,67,68,28.47,28.36,6,-134,9,0.00
2013-8-23,79.1,58.6,53.9,61.0,32.9,-99.9,84,56,41,28.56,28.39,5,-146,9,0.00
2013-8-24,80.0,52.9,48.3,58.0,24.9,-99.9,84,54,33,28.70,28.57,2,-168,5,0.00
2013-8-25,80.3,55.6,49.1,64.0,29.3,-99.9,84,57,44,28.73,28.59,4,-168,7,0.00
2013-8-26,81.9,58.9,59.4,69.0,34.2,-99.9,83,61,60,28.61,28.39,12,-169,12,0.19
2013-8-27,81.2,59.8,66.1,73.0,36.6,-99.9,85,66,73,28.38,28.30,2,-178,9,0.05
2013-8-28,78.7,58.4,67.3,71.0,36.9,-99.9,85,69,75,28.34,28.23,2,-170,5,0.50
2013-8-29,85.6,59.3,63.8,71.0,33.5,-99.9,85,61,55,28.44,28.34,3,-187,4,0.01
2013-8-30,82.6,60.3,58.6,71.0,36.8,-99.9,85,64,64,28.42,28.22,5,-168,9,0.01
2013-8-31,82.3,69.2,66.6,72.0,56.2,-99.9,84,73,69,28.24,28.17,5,-62,7,0.00
2013-9-1,83.3,67.1,63.9,72.0,54.9,-99.9,85,76,68,28.23,28.16,2,-62,7,0.01
2013-9-2,79.1,60.6,60.1,70.0,43.0,-99.9,85,71,71,28.23,28.15,5,-124,9,0.27
2013-9-3,61.0,53.8,54.0,55.0,41.3,-99.9,84,76,77,28.40,28.22,5,-74,7,0.00
2013-9-4,74.8,55.0,48.7,61.0,36.2,-99.9,84,66,60,28.46,28.40,6,-114,10,0.01
2013-9-5,68.1,53.7,43.9,55.0,33.9,-99.9,82,61,47,28.58,28.40,7,-94,10,0.00
2013-9-6,71.3,48.9,37.0,50.0,28.1,-99.9,84,60,32,28.65,28.50,3,-93,5,0.00
2013-9-7,74.2,55.2,42.2,60.0,39.8,-99.9,84,69,51,28.50,28.32,3,-73,9,0.02
2013-9-8,71.1,55.6,48.4,61.0,37.4,-99.9,84,68,60,28.47,28.29,4,-114,9,0.01
2013-9-9,73.0,55.1,43.7,62.0,43.3,-99.9,84,75,69,28.50,28.41,4,-62,7,0.26
2013-9-10,89.0,68.1,62.9,76.0,50.7,-99.9,85,70,66,28.50,28.40,6,-106,11,0.01
2013-9-11,87.6,69.8,69.8,76.0,53.6,-99.9,85,70,66,28.50,28.38,8,-93,10,0.00
2013-9-12,72.4,60.5,54.6,66.0,47.1,-99.9,84,76,79,28.39,28.18,4,-84,8,0.18
2013-9-13,58.0,48.8,46.5,51.0,36.0,-99.9,84,74,68,28.40,28.19,8,-72,13,0.03
2013-9-14,62.9,46.2,40.0,47.0,27.8,-99.9,83,64,43,28.52,28.39,6,-93,8,0.03
2013-9-15,65.0,47.3,37.1,52.0,29.6,-99.9,84,67,55,28.55,28.43,4,-105,6,0.02
2013-9-16,65.0,48.5,40.5,55.0,31.1,-99.9,84,69,69,28.68,28.46,9,-113,10,0.05
2013-9-17,69.2,44.9,33.7,46.0,24.7,-99.9,83,61,32,28.78,28.63,4,-93,5,0.00
2013-9-18,73.2,48.7,37.1,58.0,28.4,-99.9,83,63,46,28.64,28.49,4,-116,9,0.00
2013-9-19,76.5,54.0,47.7,61.0,34.9,-99.9,84,66,57,28.52,28.41,4,-117,6,0.00
2013-9-20,75.9,58.5,53.6,67.0,42.2,-99.9,84,72,74,28.42,28.20,6,-107,9,0.00
2013-9-21,66.4,49.6,50.5,61.0,28.9,-99.9,84,70,83,28.20,28.05,5,-166,7,1.27
2013-9-22,55.4,44.8,47.8,47.0,27.9,-99.9,84,70,71,28.39,28.16,8,-114,9,0.01
2013-9-23,57.4,42.9,37.4,46.0,25.9,-99.9,83,68,66,28.50,28.38,3,-106,6,0.00
2013-9-24,70.0,44.5,33.0,51.0,25.1,-99.9,84,65,44,28.50,28.36,3,-115,5,0.00
2013-9-25,74.1,46.6,39.1,53.0,23.9,-99.9,84,61,30,28.38,28.29,2,-135,5,0.00
2013-9-26,73.1,49.5,40.6,53.0,27.3,-99.9,84,60,31,28.49,28.35,4,-115,7,0.00
2013-9-27,72.1,48.7,42.7,55.0,27.4,-99.9,84,63,50,28.59,28.49,2,-135,4,0.00
2013-9-28,71.7,49.9,43.6,57.0,28.4,-99.9,84,63,56,28.64,28.52,5,-136,7,0.00
2013-9-29,72.4,51.4,47.7,59.0,30.2,-99.9,82,64,62,28.52,28.38,5,-139,6,0.00
2013-9-30,69.5,51.5,51.0,60.0,32.1,-99.9,84,68,70,28.41,28.36,3,-136,8,0.00
2013-10-1,73.6,54.2,53.0,60.0,35.8,-99.9,87,68,61,28.44,28.37,7,-118,8,0.00
2013-10-2,75.2,53.5,52.8,64.0,34.2,-99.9,84,68,65,28.47,28.38,3,-136,8,0.00
2013-10-3,77.2,53.4,44.4,67.0,34.8,-99.9,84,70,71,28.49,28.39,7,-135,8,0.03
2013-10-4,78.0,54.6,60.7,67.0,30.9,-99.9,85,66,68,28.46,28.40,4,-186,8,0.02
2013-10-5,77.7,58.3,59.2,69.0,39.7,-99.9,85,70,72,28.46,28.36,3,-135,7,0.01
2013-10-6,80.6,60.6,63.9,69.0,39.1,-99.9,85,65,66,28.36,28.13,6,-145,11,0.00
2013-10-7,69.4,44.7,46.4,59.0,20.2,-99.9,83,61,67,28.46,28.07,8,-175,16,0.09
2013-10-8,65.8,43.4,40.0,49.0,21.0,-99.9,84,62,45,28.66,28.46,4,-145,6,0.03
2013-10-9,67.6,43.6,35.7,50.0,18.6,-99.9,84,57,33,28.72,28.61,4,-147,6,0.00
2013-10-10,71.1,44.7,35.6,48.0,18.9,-99.9,83,55,25,28.62,28.48,2,-138,4,0.00
2013-10-11,73.8,48.0,41.7,49.0,22.0,-99.9,83,53,24,28.50,28.43,3,-126,7,0.00
2013-10-12,76.1,51.6,41.1,60.0,28.5,-99.9,80,59,46,28.54,28.46,3,-135,7,0.00
2013-10-13,65.8,49.6,54.8,57.0,27.1,-99.9,84,65,70,28.63,28.53,5,-166,5,0.12
2013-10-14,65.2,42.0,45.5,53.0,12.3,-99.9,84,58,64,28.70,28.60,4,-238,6,0.08
2013-10-15,67.2,48.5,41.1,57.0,28.1,-99.9,83,67,69,28.61,28.34,5,-145,6,0.00
2013-10-16,60.9,46.1,49.3,55.0,21.8,-99.9,84,65,76,28.34,28.19,5,-197,10,0.70
2013-10-17,60.0,40.2,42.4,50.0,15.4,-99.9,84,64,66,28.28,28.08,5,-199,10,0.25
2013-10-18,58.1,37.8,44.2,43.0,6.2,-99.9,81,52,56,28.33,28.19,8,-238,15,0.00
2013-10-19,54.5,38.8,39.5,44.0,18.4,-99.9,82,66,67,28.30,28.06,6,-145,11,0.17
2013-10-20,53.6,35.5,35.2,41.0,7.7,-99.9,82,57,59,28.36,28.24,6,-207,14,0.01
2013-10-21,62.2,44.1,37.7,44.0,17.1,-99.9,79,50,37,28.38,28.19,6,-136,11,0.00
2013-10-22,50.6,35.5,32.8,43.0,12.9,-99.9,82,60,50,28.27,28.18,7,-144,13,0.14
2013-10-23,42.0,29.9,31.0,34.0,9.0,-99.9,82,66,71,28.22,28.10,4,-157,11,0.12
2013-10-24,37.1,26.3,31.5,30.0,0.6,-99.9,82,63,76,28.42,28.21,5,-213,10,0.34
2013-10-25,43.0,30.8,32.0,34.0,10.3,-99.9,82,65,68,28.59,28.42,5,-146,14,0.27
2013-10-26,42.0,31.0,29.7,31.0,4.5,-99.9,79,55,56,28.52,28.19,11,-177,15,0.01
2013-10-27,41.6,28.2,29.9,33.0,0.1,-99.9,82,59,68,28.42,28.26,5,-228,10,0.00
2013-10-28,53.5,33.7,28.2,41.0,10.1,-99.9,82,61,60,28.66,28.42,5,-168,6,0.00
2013-10-29,53.2,33.8,29.3,38.0,9.8,-99.9,83,60,55,28.73,28.61,3,-168,7,0.00
2013-10-30,64.2,39.5,31.6,42.0,12.6,-99.9,82,55,36,28.60,28.45,4,-170,8,0.00
2013-10-31,62.7,45.3,47.3,56.0,20.8,-99.9,84,65,76,28.44,27.81,7,-199,14,0.56
2013-11-1,57.4,39.0,46.9,52.0,8.6,-99.9,83,55,66,28.06,27.70,13,-238,17,0.15
2013-11-2,46.8,33.5,36.8,40.0,7.4,-99.9,82,63,78,28.32,28.02,5,-218,10,0.22
2013-11-3,41.2,27.0,23.5,31.0,0.8,-99.9,81,57,55,28.79,28.32,7,-191,10,0.00
2013-11-4,39.6,26.6,21.2,18.0,-6.0,-99.9,80,42,35,28.88,28.75,6,-186,10,0.00
2013-11-5,50.9,35.8,33.4,32.0,5.0,-99.9,64,43,44,28.81,28.67,3,-166,6,0.00
2013-11-6,65.2,45.4,37.4,52.0,19.6,-99.9,83,57,48,28.66,28.23,8,-169,16,0.17
2013-11-7,55.9,29.9,31.8,51.0,1.2,-99.9,83,58,68,28.41,28.21,15,-230,15,0.39
2013-11-8,37.9,26.8,28.8,30.0,0.1,-99.9,82,60,70,28.58,28.36,8,-197,10,0.13
2013-11-9,50.7,33.4,25.7,37.0,1.5,-99.9,78,47,43,28.58,28.23,5,-209,14,0.03
2013-11-10,48.5,31.6,33.7,38.0,2.1,-99.9,77,53,63,28.55,28.23,9,-217,17,0.00
2013-11-11,42.2,27.0,27.4,31.0,-4.5,-99.9,82,54,59,28.55,28.34,10,-254,13,0.13
2013-11-12,30.6,26.2,23.4,21.0,19.0,16.0,81,74,58,28.72,28.64,10,2,13,0.00
2013-11-13,33.2,26.4,21.8,22.0,18.7,16.0,81,73,59,28.77,28.58,6,1,13,0.04
2013-11-14,46.3,33.2,24.3,21.0,16.9,15.0,70,53,31,28.58,28.46,8,1,13,0.04
2013-11-15,51.3,39.7,28.8,28.0,19.3,15.0,67,46,28,28.50,28.43,6,0,10,0.00
2013-11-16,57.4,44.9,31.1,45.0,36.1,25.0,80,72,62,28.58,28.37,4,1,7,0.00
2013-11-17,57.3,53.0,48.6,52.0,47.3,43.0,83,81,74,28.37,27.84,12,2,19,0.90
2013-11-18,52.8,40.3,32.2,45.0,29.1,-99.9,77,67,62,28.35,27.88,13,-12,21,0.00
2013-11-19,34.8,30.2,21.2,24.0,21.7,16.0,79,71,63,28.72,28.36,6,2,12,0.00
2013-11-20,43.4,30.1,18.1,20.0,12.9,8.0,81,54,27,28.79,28.70,6,1,10,0.00
2013-11-21,39.9,35.2,30.0,33.0,25.3,10.0,80,68,41,28.75,28.56,5,1,6,0.08
2013-11-22,47.1,41.1,30.1,42.0,36.0,24.0,83,82,78,28.56,28.39,6,1,17,0.20
2013-11-23,30.6,24.2,15.7,24.0,18.1,10.0,81,77,68,28.56,28.42,8,2,21,0.00
2013-11-24,19.0,15.6,11.7,13.0,9.7,6.0,79,77,72,28.75,28.57,8,2,11,0.00
2013-11-25,30.2,19.6,7.3,20.0,9.6,2.0,79,66,50,28.73,28.47,5,1,13,0.00
2013-11-26,31.8,29.3,26.1,26.0,23.9,20.0,82,80,78,28.50,28.10,2,0,6,0.00
2013-11-27,29.5,25.1,19.1,25.0,19.6,14.0,82,80,73,28.34,28.04,0,0,0,0.00
2013-11-28,27.3,20.4,17.4,16.0,13.7,12.0,80,75,62,28.69,28.35,0,0,0,0.00
2013-11-29,31.1,21.2,14.2,20.0,14.4,9.0,81,75,61,28.94,28.68,0,0,0,0.01
2013-11-30,32.1,23.3,17.1,22.0,16.1,11.0,80,74,65,28.92,28.53,0,0,0,0.00
2013-12-1,37.4,29.7,21.3,28.0,22.7,16.0,80,75,69,28.53,28.29,1,0,2,0.02
2013-12-2,40.0,33.7,26.9,31.0,26.9,22.0,81,76,69,28.29,28.18,2,0,3,0.19
2013-12-3,42.3,31.9,22.5,33.0,26.0,18.0,82,79,69,28.27,28.22,2,0,3,0.26
2013-12-4,51.4,42.8,34.2,40.0,35.5,29.0,82,76,66,28.34,28.23,4,1,7,0.07
2013-12-5,58.3,47.3,33.4,52.0,41.0,28.0,81,79,76,28.40,28.17,5,1,13,0.05
2013-12-6,33.1,29.0,24.7,28.0,23.6,19.0,82,80,76,28.57,28.37,6,1,8,0.11
2013-12-7,24.5,20.5,14.7,19.0,13.4,8.0,80,74,68,28.85,28.57,7,1,9,0.00
2013-12-8,24.8,19.8,14.5,19.0,13.0,9.0,80,75,66,28.85,28.40,6,2,11,0.00
2013-12-9,33.9,29.6,25.0,29.0,23.6,18.0,82,78,72,28.40,28.24,8,2,13,0.05
2013-12-10,25.5,20.9,18.7,18.0,10.2,-99.9,78,66,52,28.46,28.27,9,-9,12,0.00
2013-12-11,19.7,17.6,14.5,13.0,10.3,7.0,79,73,64,28.61,28.47,8,2,16,0.00
2013-12-12,16.3,11.8,6.4,9.0,2.4,-1.0,79,66,51,28.67,28.48,12,2,15,0.00
2013-12-13,25.4,18.9,13.2,14.0,8.6,0.0,75,64,55,28.56,28.46,9,1,13,0.00
2013-12-14,29.0,24.7,19.8,24.0,18.9,13.0,82,79,74,28.56,27.99,8,2,10,0.00
2013-12-15,29.5,21.1,13.3,25.0,15.0,7.0,82,77,73,28.27,27.94,10,2,16,0.00
2013-12-16,18.5,12.8,4.6,9.0,5.8,-1.0,79,73,65,28.43,28.27,7,1,14,0.00
2013-12-17,24.4,20.6,10.4,19.0,14.7,5.0,81,78,72,28.34,28.22,2,0,3,0.00
2013-12-18,25.3,22.7,18.2,19.0,16.2,12.0,79,76,72,28.44,28.29,3,0,7,0.00
2013-12-19,43.5,31.5,17.0,31.0,22.5,11.0,77,70,60,28.38,28.31,7,1,11,0.51
2013-12-20,48.7,41.4,37.4,44.0,34.7,29.0,84,77,61,28.32,28.19,5,1,9,0.55
2013-12-21,57.8,51.3,46.8,53.0,46.8,42.0,85,84,83,28.20,28.00,5,1,12,1.69
2013-12-22,60.1,53.2,38.4,55.0,47.2,33.0,85,80,68,28.31,27.86,11,3,22,0.37
2013-12-23,39.4,31.9,25.6,34.0,25.5,16.0,82,77,67,28.57,28.30,7,2,14,0.03
2013-12-24,25.6,18.8,11.5,18.0,12.2,6.0,79,75,68,28.75,28.51,7,1,14,0.00
2013-12-25,21.9,19.0,10.8,16.0,10.4,5.0,78,70,62,28.75,28.49,3,0,7,0.00
2013-12-26,28.2,24.2,16.0,22.0,17.7,10.0,81,76,68,28.61,28.39,9,2,11,0.00
2013-12-27,34.1,27.0,17.8,25.0,19.7,12.0,77,74,69,28.62,28.51,4,0,9,0.00
2013-12-28,47.1,38.2,30.9,33.0,27.5,23.0,74,66,58,28.51,28.36,8,1,13,0.08
2013-12-29,38.2,36.0,30.3,33.0,28.7,25.0,83,75,65,28.35,28.02,5,1,13,0.27
2013-12-30,29.2,17.5,12.8,24.0,10.5,5.0,81,74,67,28.49,28.15,9,2,13,0.00
2013-12-31,18.0,15.5,11.8,13.0,8.1,4.0,79,73,63,28.56,28.32,8,1,18,0.00
2014-1-1,21.0,17.4,14.1,15.0,11.5,8.0,79,77,73,28.62,28.41,3,0,5,0.00
2014-1-2,17.3,12.9,3.8,12.0,7.3,-2.0,79,78,76,28.41,28.10,7,2,14,0.00